Time;durP1;ratioP1;P1;durP2;ratioP2;P2;SDS_P1;SDS_P2;PMS_P1;PMS_P2;Temp;Humidity;BMP_temperature;BMP_pressure;BME280_temperature;BME280_humidity;BME280_pressure;Samples;Min_cycle;Max_cycle;Signal;HPM_P1;HPM_P2
2023/07/19 00:02:23;;;;;;;10.65;4.95;;;;;;;23.91;54.02;99609.97;6119629;23;20832;-83
2023/07/19 00:04:50;;;;;;;9.73;5.00;;;;;;;23.91;54.23;99616.22;6120085;23;20029;-83
2023/07/19 00:07:17;;;;;;;9.32;4.60;;;;;;;23.88;54.27;99610.44;6119290;23;20029;-83
2023/07/19 00:09:43;;;;;;;7.80;4.25;;;;;;;23.91;54.20;99609.97;6121331;23;20021;-82
2023/07/19 00:12:10;;;;;;;9.13;4.57;;;;;;;23.89;54.08;99607.50;6120543;23;20378;-83
2023/07/19 00:14:37;;;;;;;7.85;4.93;;;;;;;23.87;53.78;99598.75;6094554;23;20029;-83
2023/07/19 00:17:04;;;;;;;7.57;4.95;;;;;;;23.87;54.01;99600.66;6120668;23;20077;-83
2023/07/19 00:19:30;;;;;;;7.75;4.30;;;;;;;23.83;53.95;99590.25;6121321;23;20093;-82
2023/07/19 00:21:57;;;;;;;11.95;4.97;;;;;;;23.84;53.80;99593.81;6120992;23;20378;-83
2023/07/19 00:24:24;;;;;;;8.35;4.38;;;;;;;23.86;54.12;99596.28;6096062;23;20021;-83
2023/07/19 00:26:51;;;;;;;12.20;4.65;;;;;;;23.83;54.26;99592.94;6096732;23;20022;-82
2023/07/19 00:29:18;;;;;;;12.20;5.18;;;;;;;23.80;54.42;99589.88;6097293;23;20025;-82
2023/07/19 00:31:44;;;;;;;8.80;5.18;;;;;;;23.79;54.18;99580.94;6096990;23;20025;-82
2023/07/19 00:34:11;;;;;;;8.10;4.85;;;;;;;23.76;54.26;99583.25;6070559;23;20022;-83
2023/07/19 00:36:38;;;;;;;8.00;4.88;;;;;;;23.75;54.22;99595.97;6096439;23;20412;-83
2023/07/19 00:39:05;;;;;;;10.32;5.53;;;;;;;23.74;54.33;99596.22;6145997;23;20524;-83
2023/07/19 00:41:33;;;;;;;13.27;4.60;;;;;;;23.71;54.12;99591.22;6120667;23;20319;-84
2023/07/19 00:44:00;;;;;;;8.70;4.60;;;;;;;23.70;54.25;99594.97;6071042;23;20026;-83
2023/07/19 00:46:27;;;;;;;11.38;4.57;;;;;;;23.69;54.05;99596.06;6096147;23;20357;-83
2023/07/19 00:48:54;;;;;;;9.27;4.60;;;;;;;23.63;54.07;99589.63;6094989;23;20025;-83
2023/07/19 00:51:21;;;;;;;11.60;5.03;;;;;;;23.61;54.15;99592.59;6071110;23;20063;-83
2023/07/19 00:53:49;;;;;;;9.27;4.65;;;;;;;23.58;54.54;99592.19;6071354;23;20092;-83
2023/07/19 00:56:17;;;;;;;7.93;4.43;;;;;;;23.56;54.39;99600.56;6120075;23;20047;-83
2023/07/19 00:58:44;;;;;;;13.80;5.93;;;;;;;23.56;54.45;99600.56;6096424;23;20350;-84
2023/07/19 01:01:12;;;;;;;12.32;4.75;;;;;;;23.54;54.42;99599.97;6095112;23;20029;-83
2023/07/19 01:03:38;;;;;;;14.25;5.72;;;;;;;23.52;54.71;99599.34;6094472;23;20450;-83
2023/07/19 01:06:05;;;;;;;8.98;5.30;;;;;;;23.53;54.42;99594.75;6120774;23;20088;-83
2023/07/19 01:08:32;;;;;;;10.63;5.15;;;;;;;23.51;54.44;99596.84;6144404;23;20028;-83
2023/07/19 01:10:59;;;;;;;8.25;5.18;;;;;;;23.51;54.57;99605.84;6096041;23;20021;-83
2023/07/19 01:13:26;;;;;;;15.38;5.95;;;;;;;23.49;54.63;99607.94;6070834;23;20022;-85
2023/07/19 01:15:53;;;;;;;10.18;4.70;;;;;;;23.45;55.00;99608.63;6072468;23;20041;-83
2023/07/19 01:18:20;;;;;;;9.48;4.88;;;;;;;23.44;55.05;99606.97;6119267;23;20041;-83
2023/07/19 01:20:47;;;;;;;12.52;5.63;;;;;;;23.41;54.94;99605.53;6048853;23;20761;-83
2023/07/19 01:23:14;;;;;;;11.48;5.70;;;;;;;23.38;55.21;99598.69;6070947;23;20022;-83
2023/07/19 01:25:42;;;;;;;13.70;5.10;;;;;;;23.36;55.35;99598.09;6094115;23;20021;-83
2023/07/19 01:28:09;;;;;;;11.85;5.20;;;;;;;23.36;55.14;99597.25;6072366;23;20049;-83
2023/07/19 01:30:36;;;;;;;8.32;4.85;;;;;;;23.34;55.50;99599.34;6070645;23;20024;-83
2023/07/19 01:33:03;;;;;;;9.02;4.95;;;;;;;23.31;55.46;99602.53;6070939;23;20026;-83
2023/07/19 01:35:30;;;;;;;10.80;5.45;;;;;;;23.29;55.24;99607.34;6096048;23;20076;-83
2023/07/19 01:37:58;;;;;;;9.50;4.95;;;;;;;23.27;55.52;99601.31;6071891;23;20025;-83
2023/07/19 01:40:24;;;;;;;11.25;5.65;;;;;;;23.26;55.51;99603.19;6096325;23;20349;-83
2023/07/19 01:42:51;;;;;;;9.48;5.85;;;;;;;23.24;55.79;99608.00;6070146;23;20587;-83
2023/07/19 01:45:19;;;;;;;13.00;4.90;;;;;;;23.22;55.63;99598.44;6095488;23;20024;-83
2023/07/19 01:47:46;;;;;;;12.32;5.32;;;;;;;23.17;55.83;99599.09;6095451;23;20072;-83
2023/07/19 01:50:13;;;;;;;11.70;5.18;;;;;;;23.16;55.78;99598.28;6094693;23;20029;-83
2023/07/19 01:52:40;;;;;;;14.00;5.38;;;;;;;23.17;56.13;99602.63;6093870;23;20029;-83
2023/07/19 01:55:07;;;;;;;10.80;5.35;;;;;;;23.15;56.20;99604.75;6094469;23;20029;-83
2023/07/19 01:57:34;;;;;;;10.35;5.18;;;;;;;23.10;56.39;99598.34;6072507;23;20021;-83
2023/07/19 02:00:02;;;;;;;10.95;5.88;;;;;;;23.08;57.20;99595.88;6093974;23;20454;-83
2023/07/19 02:02:42;;;;;;;10.48;5.63;;;;;;;23.07;57.10;99590.66;6120686;23;20029;-83
2023/07/19 02:05:09;;;;;;;9.50;5.70;;;;;;;23.07;57.54;99599.63;6119013;23;20017;-83
2023/07/19 02:07:36;;;;;;;13.07;5.30;;;;;;;23.04;57.96;99591.13;6070891;23;20026;-83
2023/07/19 02:10:05;;;;;;;8.00;5.00;;;;;;;23.03;58.13;99590.28;6094956;23;20024;-83
2023/07/19 02:12:32;;;;;;;17.17;5.80;;;;;;;23.00;58.20;99600.72;6071324;23;20043;-83
2023/07/19 02:14:58;;;;;;;10.48;5.10;;;;;;;23.01;58.63;99605.94;6094101;23;20034;-84
2023/07/19 02:17:25;;;;;;;11.13;5.45;;;;;;;22.99;58.43;99590.97;6071366;23;20021;-83
2023/07/19 02:19:52;;;;;;;11.68;5.50;;;;;;;22.94;58.36;99600.53;6094730;23;20025;-83
2023/07/19 02:22:19;;;;;;;8.68;5.50;;;;;;;22.93;57.94;99596.19;6095598;23;20029;-83
2023/07/19 02:24:45;;;;;;;12.68;6.63;;;;;;;22.90;57.88;99591.22;6069847;23;20104;-83
2023/07/19 02:27:12;;;;;;;11.85;5.78;;;;;;;22.92;57.64;99588.28;6046785;23;20025;-83
2023/07/19 02:29:39;;;;;;;10.45;5.22;;;;;;;22.90;57.54;99595.81;6095785;23;20131;-83
2023/07/19 02:32:07;;;;;;;10.55;5.32;;;;;;;22.90;57.32;99593.09;6119514;23;20096;-83
2023/07/19 02:34:33;;;;;;;13.60;6.15;;;;;;;22.89;57.28;99597.66;6093522;23;20029;-83
2023/07/19 02:37:00;;;;;;;12.10;5.38;;;;;;;22.87;57.31;99593.53;6071205;23;20022;-83
2023/07/19 02:39:29;;;;;;;10.43;5.20;;;;;;;22.82;57.39;99582.53;6119353;23;20021;-83
2023/07/19 02:41:57;;;;;;;11.82;5.18;;;;;;;22.83;57.37;99585.03;6093936;23;20021;-83
2023/07/19 02:44:24;;;;;;;11.65;5.25;;;;;;;22.83;57.55;99586.91;6117894;23;20033;-84
2023/07/19 02:46:51;;;;;;;16.13;5.45;;;;;;;22.81;57.53;99584.41;6094884;23;20021;-83
2023/07/19 02:49:18;;;;;;;8.57;5.30;;;;;;;22.77;57.57;99583.22;6071361;23;20029;-83
2023/07/19 02:51:44;;;;;;;10.57;5.20;;;;;;;22.77;57.56;99583.22;6094538;23;20024;-83
2023/07/19 02:54:11;;;;;;;12.10;5.60;;;;;;;22.74;57.63;99581.78;6118861;23;20022;-83
2023/07/19 02:56:38;;;;;;;9.77;5.50;;;;;;;22.72;57.49;99586.59;6071374;23;20041;-83
2023/07/19 02:59:05;;;;;;;9.27;5.60;;;;;;;22.67;57.77;99594.53;6096076;23;20319;-83
2023/07/19 03:01:32;;;;;;;11.90;5.70;;;;;;;22.68;57.73;99603.47;6093588;23;20374;-83
2023/07/19 03:03:59;;;;;;;10.30;5.47;;;;;;;22.65;57.58;99598.50;6070391;23;20033;-83
2023/07/19 03:06:27;;;;;;;9.13;5.47;;;;;;;22.63;57.84;99606.84;6094732;23;20037;-83
2023/07/19 03:08:55;;;;;;;10.50;5.57;;;;;;;22.61;57.73;99606.22;6069741;23;20021;-83
2023/07/19 03:11:22;;;;;;;12.07;5.25;;;;;;;22.59;57.86;99613.72;6095647;23;20559;-83
2023/07/19 03:13:49;;;;;;;10.68;5.93;;;;;;;22.56;58.02;99614.19;6069162;23;21159;-83
2023/07/19 03:16:16;;;;;;;13.60;5.90;;;;;;;22.55;57.75;99617.94;6047381;23;20100;-83
2023/07/19 03:18:43;;;;;;;14.27;5.65;;;;;;;22.54;57.74;99619.81;6093488;23;20018;-83
2023/07/19 03:21:10;;;;;;;14.40;5.40;;;;;;;22.53;57.80;99615.44;6094114;23;20033;-83
2023/07/19 03:23:37;;;;;;;13.93;5.82;;;;;;;22.52;57.92;99621.91;6068259;23;20025;-83
2023/07/19 03:26:04;;;;;;;15.63;5.38;;;;;;;22.51;57.83;99619.41;6046543;23;20096;-84
2023/07/19 03:28:31;;;;;;;12.88;5.88;;;;;;;22.50;58.05;99623.19;6043837;23;20035;-78
2023/07/19 03:30:58;;;;;;;12.40;5.40;;;;;;;22.47;58.05;99631.75;6088199;23;20389;-78
2023/07/19 03:33:25;;;;;;;11.35;5.25;;;;;;;22.49;57.85;99635.88;6090573;23;20035;-78
2023/07/19 03:35:53;;;;;;;10.68;5.32;;;;;;;22.48;57.87;99641.50;6116297;23;20025;-78
2023/07/19 03:38:25;;;;;;;13.05;6.00;;;;;;;22.41;58.24;99636.13;6089905;23;20060;-78
2023/07/19 03:40:54;;;;;;;10.30;5.72;;;;;;;22.43;58.06;99642.16;6113450;23;20050;-78
2023/07/19 03:43:21;;;;;;;12.18;5.35;;;;;;;22.43;58.22;99642.16;6090267;23;20681;-79
2023/07/19 03:45:50;;;;;;;9.95;5.15;;;;;;;22.43;57.91;99641.34;6062292;23;20469;-79
2023/07/19 03:48:17;;;;;;;12.20;5.40;;;;;;;22.40;58.01;99634.47;6026199;23;20399;-79
2023/07/19 03:50:55;;;;;;;7.68;4.85;;;;;;;22.33;58.71;99641.81;6115840;23;20032;-79
2023/07/19 03:53:23;;;;;;;13.13;5.53;;;;;;;22.39;57.94;99640.09;6114258;23;20041;-78
2023/07/19 03:55:54;;;;;;;10.93;5.60;;;;;;;22.37;58.29;99639.50;6068553;23;20029;-78
2023/07/19 03:58:25;;;;;;;10.80;6.43;;;;;;;22.35;59.56;99637.00;6066599;23;20102;-78
2023/07/19 04:01:03;;;;;;;9.98;6.15;;;;;;;22.38;59.25;99639.28;6115593;23;20025;-78
2023/07/19 04:03:30;;;;;;;10.88;6.05;;;;;;;22.38;59.06;99646.56;6113844;23;20326;-79
2023/07/19 04:05:58;;;;;;;12.70;6.75;;;;;;;22.36;58.84;99640.53;6068723;23;20025;-78
2023/07/19 04:08:26;;;;;;;12.68;6.10;;;;;;;22.38;58.77;99638.44;6065873;23;20025;-78
2023/07/19 04:10:52;;;;;;;12.50;6.00;;;;;;;22.39;58.62;99643.66;6115309;23;20418;-78
2023/07/19 04:13:19;;;;;;;9.38;5.30;;;;;;;22.72;59.08;99631.78;6090792;23;20028;-78
2023/07/19 04:15:46;;;;;;;10.85;5.68;;;;;;;22.77;58.72;99640.06;6042468;23;20025;-78
2023/07/19 04:18:13;;;;;;;15.05;6.30;;;;;;;22.71;58.81;99639.03;6091532;23;20021;-79
2023/07/19 04:20:40;;;;;;;13.35;7.07;;;;;;;22.69;59.08;99645.72;6092350;23;20516;-79
2023/07/19 04:23:07;;;;;;;12.63;6.40;;;;;;;22.67;58.61;99642.41;6090893;23;20029;-78
2023/07/19 04:25:34;;;;;;;14.55;6.32;;;;;;;22.60;58.41;99650.59;6064038;23;20478;-79
2023/07/19 04:28:03;;;;;;;11.55;6.07;;;;;;;22.54;58.59;99638.78;6115998;23;20501;-78
2023/07/19 04:30:30;;;;;;;13.32;6.45;;;;;;;22.56;58.82;99633.13;6067608;23;20758;-80
2023/07/19 04:32:57;;;;;;;14.40;6.40;;;;;;;22.67;58.48;99635.13;6089589;23;20025;-78
2023/07/19 04:35:24;;;;;;;16.58;6.38;;;;;;;22.84;57.56;99638.09;6093312;23;20451;-90
2023/07/19 04:37:51;;;;;;;10.65;6.75;;;;;;;22.99;57.22;99643.22;6072713;23;20033;-90
2023/07/19 04:40:18;;;;;;;16.73;6.40;;;;;;;23.04;56.88;99637.16;6095546;23;20449;-89
2023/07/19 04:42:45;;;;;;;19.95;7.03;;;;;;;23.10;56.73;99644.38;6095444;23;20800;-89
2023/07/19 04:45:13;;;;;;;14.00;7.38;;;;;;;23.12;56.37;99645.81;6047795;23;20063;-88
2023/07/19 04:47:40;;;;;;;19.60;8.93;;;;;;;23.14;56.17;99654.56;6119405;23;20026;-89
2023/07/19 04:50:09;;;;;;;21.95;10.50;;;;;;;23.11;55.63;99652.28;6072181;23;20022;-89
2023/07/19 04:52:37;;;;;;;21.70;9.85;;;;;;;23.09;55.66;99648.16;6119207;23;20454;-89
2023/07/19 04:55:05;;;;;;;22.60;11.25;;;;;;;23.10;55.69;99661.47;6049006;23;20029;-89
2023/07/19 04:57:33;;;;;;;21.75;9.45;;;;;;;23.07;55.62;99645.66;6071989;23;20022;-88
2023/07/19 05:00:01;;;;;;;27.50;10.57;;;;;;;23.06;56.12;99651.31;6071945;23;20112;-89
2023/07/19 05:02:28;;;;;;;22.42;8.93;;;;;;;23.07;55.98;99645.66;6072875;23;20021;-88
2023/07/19 05:04:55;;;;;;;17.42;8.60;;;;;;;23.03;56.14;99630.91;6049458;23;20100;-89
2023/07/19 05:07:22;;;;;;;17.83;8.80;;;;;;;23.03;56.11;99641.75;6094620;23;20029;-90
2023/07/19 05:09:49;;;;;;;15.07;8.52;;;;;;;23.03;56.24;99640.94;6049482;23;20056;-88
2023/07/19 05:12:16;;;;;;;18.75;8.55;;;;;;;22.97;56.35;99642.63;6072865;23;20354;-88
2023/07/19 05:14:43;;;;;;;15.48;8.63;;;;;;;22.98;56.55;99651.59;6096539;23;20021;-89
2023/07/19 05:17:10;;;;;;;21.17;8.73;;;;;;;22.95;56.33;99645.53;6098118;23;20048;-88
2023/07/19 05:19:37;;;;;;;19.98;9.35;;;;;;;22.95;56.39;99655.53;6072457;23;20025;-89
2023/07/19 05:22:04;;;;;;;21.23;10.02;;;;;;;22.95;56.34;99656.38;6098084;23;20068;-89
2023/07/19 05:24:32;;;;;;;19.85;8.43;;;;;;;22.96;56.52;99646.34;6096902;23;20100;-89
2023/07/19 05:27:00;;;;;;;17.08;8.35;;;;;;;22.93;56.88;99644.91;6121310;23;20032;-89
2023/07/19 05:29:27;;;;;;;18.13;8.25;;;;;;;22.94;56.79;99643.03;6096862;23;20033;-89
2023/07/19 05:31:54;;;;;;;17.10;8.63;;;;;;;22.95;56.97;99648.25;6097253;23;20446;-89
2023/07/19 05:34:25;;;;;;;17.83;7.13;;;;;;;22.89;56.93;99638.28;6072728;23;20021;-89
2023/07/19 05:36:52;;;;;;;17.88;7.07;;;;;;;22.88;56.91;99639.34;6097448;23;20029;-90
2023/07/19 05:39:18;;;;;;;16.98;8.65;;;;;;;22.86;57.09;99643.31;6095721;23;20362;-89
2023/07/19 05:41:45;;;;;;;18.30;7.57;;;;;;;22.87;57.00;99650.38;6097725;23;20017;-89
2023/07/19 05:44:13;;;;;;;15.95;6.93;;;;;;;22.86;56.97;99644.13;6097835;23;20030;-89
2023/07/19 05:46:40;;;;;;;16.95;7.55;;;;;;;22.90;56.73;99650.78;6073235;23;20441;-89
2023/07/19 05:49:07;;;;;;;19.05;7.75;;;;;;;22.93;56.69;99655.75;6096806;23;20430;-90
2023/07/19 05:51:34;;;;;;;15.65;7.70;;;;;;;22.94;56.98;99659.28;6097623;23;20021;-90
2023/07/19 05:54:01;;;;;;;16.02;7.50;;;;;;;22.98;56.89;99654.31;6073313;23;20025;-90
2023/07/19 05:56:28;;;;;;;20.85;7.35;;;;;;;23.02;57.14;99658.22;6074038;23;20021;-90
2023/07/19 05:58:55;;;;;;;15.20;7.75;;;;;;;23.02;57.50;99667.16;6072700;23;20028;-89
2023/07/19 06:01:21;;;;;;;15.65;7.50;;;;;;;23.07;57.37;99661.91;6073050;23;20091;-90
2023/07/19 06:03:54;;;;;;;13.27;7.47;;;;;;;23.10;57.61;99660.63;6074202;23;20423;-89
2023/07/19 06:06:21;;;;;;;15.43;7.53;;;;;;;23.12;57.70;99655.81;6096862;23;20029;-90
2023/07/19 06:08:48;;;;;;;13.82;8.15;;;;;;;23.15;57.76;99655.38;6048723;23;20052;-89
2023/07/19 06:11:15;;;;;;;22.50;9.23;;;;;;;23.18;57.65;99661.19;6097686;23;20028;-90
2023/07/19 06:13:42;;;;;;;12.18;7.35;;;;;;;23.17;57.64;99658.69;6073590;23;20014;-90
2023/07/19 06:16:09;;;;;;;16.45;8.02;;;;;;;23.17;57.49;99656.81;6073321;23;20045;-89
2023/07/19 06:18:36;;;;;;;15.65;8.07;;;;;;;23.18;57.71;99658.47;6049500;23;20174;-90
2023/07/19 06:21:02;;;;;;;18.88;8.52;;;;;;;23.22;57.59;99660.75;6122085;23;20047;-89
2023/07/19 06:23:29;;;;;;;17.17;7.63;;;;;;;23.18;57.99;99652.25;6072622;23;20044;-90
2023/07/19 06:25:56;;;;;;;15.40;7.97;;;;;;;23.20;57.80;99663.66;6072194;23;20524;-90
2023/07/19 06:28:23;;;;;;;15.52;8.02;;;;;;;23.22;58.07;99658.03;6097456;23;20076;-89
2023/07/19 06:30:50;;;;;;;15.63;7.78;;;;;;;23.26;57.87;99659.25;6073361;23;20084;-89
2023/07/19 06:33:17;;;;;;;17.30;8.32;;;;;;;23.27;58.17;99655.50;6073472;23;20041;-88
2023/07/19 06:35:43;;;;;;;11.98;7.53;;;;;;;23.25;58.21;99660.28;6097284;23;20029;-89
2023/07/19 06:38:10;;;;;;;15.02;7.90;;;;;;;23.25;58.78;99652.16;6073485;23;20017;-89
2023/07/19 06:40:37;;;;;;;13.95;7.40;;;;;;;23.26;58.87;99656.56;6098101;23;20425;-90
2023/07/19 06:43:06;;;;;;;17.13;8.20;;;;;;;23.25;58.98;99658.41;6072611;23;20045;-89
2023/07/19 06:45:32;;;;;;;21.35;8.70;;;;;;;23.24;59.22;99655.94;6096472;23;20315;-90
2023/07/19 06:47:59;;;;;;;17.10;8.10;;;;;;;23.30;59.16;99663.97;6073860;23;20350;-90
2023/07/19 06:50:26;;;;;;;15.15;7.68;;;;;;;23.29;59.31;99654.22;6097585;23;20025;-89
2023/07/19 06:52:53;;;;;;;18.70;8.55;;;;;;;23.28;59.13;99663.41;6096857;23;20505;-89
2023/07/19 06:55:20;;;;;;;19.08;8.82;;;;;;;23.27;59.23;99656.31;6097145;23;20025;-90
2023/07/19 06:57:47;;;;;;;17.05;8.10;;;;;;;23.33;59.60;99660.00;6097179;23;20096;-89
2023/07/19 07:00:14;;;;;;;21.27;8.93;;;;;;;23.38;59.39;99654.75;6073096;23;20433;-89
2023/07/19 07:02:41;;;;;;;18.15;8.50;;;;;;;23.42;59.30;99657.84;6073497;23;20101;-89
2023/07/19 07:05:10;;;;;;;16.63;7.85;;;;;;;23.48;59.45;99657.75;6120887;23;20047;-89
2023/07/19 07:07:39;;;;;;;15.90;8.55;;;;;;;23.53;59.88;99652.50;6073773;23;20022;-89
2023/07/19 07:10:08;;;;;;;17.13;8.27;;;;;;;23.55;59.97;99658.53;6075323;23;20049;-89
2023/07/19 07:12:36;;;;;;;15.57;7.75;;;;;;;23.62;59.88;99650.34;6051154;23;20112;-89
2023/07/19 07:15:03;;;;;;;14.25;7.80;;;;;;;23.66;59.91;99645.28;6098923;23;20022;-89
2023/07/19 07:17:32;;;;;;;19.02;8.35;;;;;;;23.67;59.71;99646.94;6052057;23;20013;-87
2023/07/19 07:19:59;;;;;;;18.92;8.18;;;;;;;23.73;59.90;99646.06;6074801;23;20026;-88
2023/07/19 07:22:26;;;;;;;16.70;8.38;;;;;;;23.74;60.31;99650.44;6099237;23;20438;-89
2023/07/19 07:24:53;;;;;;;19.10;7.85;;;;;;;23.78;59.98;99654.34;6050344;23;20017;-89
2023/07/19 07:27:20;;;;;;;18.55;8.00;;;;;;;23.82;59.63;99658.28;6098969;23;20021;-89
2023/07/19 07:29:46;;;;;;;14.65;9.15;;;;;;;23.82;60.19;99653.66;6099596;23;20088;-89
2023/07/19 07:32:13;;;;;;;15.60;8.02;;;;;;;23.91;60.22;99659.59;6074634;23;20076;-90
2023/07/19 07:34:40;;;;;;;16.55;8.48;;;;;;;23.94;60.01;99655.63;6074257;23;20030;-89
2023/07/19 07:37:07;;;;;;;17.95;8.70;;;;;;;23.99;60.56;99653.91;6075566;23;20021;-88
2023/07/19 07:39:35;;;;;;;15.52;8.23;;;;;;;24.02;60.04;99650.72;6074800;23;20053;-89
2023/07/19 07:42:02;;;;;;;15.23;8.23;;;;;;;24.05;59.95;99652.16;6074242;23;20021;-89
2023/07/19 07:44:29;;;;;;;15.13;7.35;;;;;;;24.11;59.69;99653.13;6099038;23;20100;-89
2023/07/19 07:46:56;;;;;;;20.98;8.35;;;;;;;24.09;59.81;99641.66;6122791;23;20043;-88
2023/07/19 07:49:23;;;;;;;12.48;6.95;;;;;;;24.18;59.97;99641.13;6098049;23;20084;-88
2023/07/19 07:51:50;;;;;;;22.65;8.00;;;;;;;24.22;59.31;99642.31;6051536;23;20017;-89
2023/07/19 07:54:17;;;;;;;14.85;8.77;;;;;;;24.23;59.39;99645.84;6097801;23;20021;-89
2023/07/19 07:56:44;;;;;;;18.55;7.95;;;;;;;24.21;59.42;99643.38;6098341;23;20442;-89
2023/07/19 07:59:11;;;;;;;16.23;8.75;;;;;;;24.24;58.66;99642.06;6098835;23;20025;-89
2023/07/19 08:01:38;;;;;;;16.40;8.30;;;;;;;24.25;58.61;99643.75;6098184;23;20080;-88
2023/07/19 08:04:06;;;;;;;16.17;7.88;;;;;;;24.35;58.44;99641.31;6075135;23;20026;-88
2023/07/19 08:06:36;;;;;;;15.07;7.40;;;;;;;24.37;58.03;99639.16;6051797;23;20048;-88
2023/07/19 08:09:03;;;;;;;25.67;7.70;;;;;;;24.46;57.46;99645.16;6122438;23;20049;-88
2023/07/19 08:11:32;;;;;;;19.15;7.35;;;;;;;24.52;56.51;99637.97;6098087;23;20080;-88
2023/07/19 08:13:59;;;;;;;12.88;7.18;;;;;;;24.48;56.62;99630.28;6098719;23;20029;-89
2023/07/19 08:16:27;;;;;;;16.92;8.30;;;;;;;24.54;56.89;99638.56;6074791;23;20025;-88
2023/07/19 08:18:54;;;;;;;16.67;7.78;;;;;;;24.57;56.78;99633.47;6097396;23;20500;-88
2023/07/19 08:21:23;;;;;;;13.85;7.82;;;;;;;24.54;56.28;99644.00;6098179;23;20091;-88
2023/07/19 08:24:02;;;;;;;17.35;7.40;;;;;;;24.58;55.57;99637.88;6079659;23;20037;-89
2023/07/19 08:26:29;;;;;;;18.13;7.40;;;;;;;24.61;55.48;99628.44;6122765;23;20029;-91
2023/07/19 08:28:56;;;;;;;14.57;7.00;;;;;;;24.64;56.05;99631.50;6098101;23;20097;-89
2023/07/19 08:31:23;;;;;;;15.82;7.18;;;;;;;24.69;56.45;99622.66;6098193;23;20021;-88
2023/07/19 08:33:53;;;;;;;14.93;7.30;;;;;;;24.71;56.01;99619.72;6099167;23;20022;-88
2023/07/19 08:36:20;;;;;;;14.02;7.75;;;;;;;24.72;55.93;99618.66;6097385;23;20018;-88
2023/07/19 08:38:47;;;;;;;12.30;7.13;;;;;;;24.72;56.18;99619.47;6122418;23;20084;-89
2023/07/19 08:41:17;;;;;;;17.52;6.60;;;;;;;24.69;54.46;99611.78;6073965;23;20018;-89
2023/07/19 08:43:45;;;;;;;14.63;7.40;;;;;;;24.74;54.19;99617.34;6097710;23;20044;-87
2023/07/19 08:46:14;;;;;;;15.32;6.85;;;;;;;24.73;53.73;99607.56;6098177;23;20029;-87
2023/07/19 08:48:44;;;;;;;16.33;6.78;;;;;;;24.74;52.49;99603.78;6073960;23;20025;-87
2023/07/19 08:51:13;;;;;;;12.88;6.15;;;;;;;24.78;52.49;99606.84;6121844;23;20021;-88
2023/07/19 08:53:40;;;;;;;10.93;5.85;;;;;;;24.78;53.01;99601.41;6121900;23;20088;-88
2023/07/19 08:56:07;;;;;;;13.23;5.72;;;;;;;24.79;52.50;99609.34;6097413;23;20026;-88
2023/07/19 08:58:36;;;;;;;13.23;5.88;;;;;;;24.81;51.73;99607.22;6073875;23;20025;-88
2023/07/19 09:01:03;;;;;;;13.85;5.80;;;;;;;24.83;51.72;99598.81;6049722;23;20021;-88
2023/07/19 09:03:30;;;;;;;16.42;6.25;;;;;;;24.88;51.50;99594.34;6073706;23;20021;-88
2023/07/19 09:05:57;;;;;;;15.70;5.80;;;;;;;24.91;51.55;99601.22;6074476;23;20040;-88
2023/07/19 09:08:37;;;;;;;15.18;5.45;;;;;;;24.91;51.17;99596.59;6097582;23;20331;-88
2023/07/19 09:11:04;;;;;;;8.80;4.90;;;;;;;24.99;51.23;99591.88;6097651;23;20465;-88
2023/07/19 09:13:32;;;;;;;12.20;5.53;;;;;;;25.01;50.17;99595.16;6097313;23;20022;-87
2023/07/19 09:16:04;;;;;;;9.60;5.20;;;;;;;25.00;50.12;99588.91;6098281;23;20028;-89
2023/07/19 09:18:37;;;;;;;10.50;5.35;;;;;;;25.00;50.14;99580.75;6121638;23;20022;-88
2023/07/19 09:21:05;;;;;;;17.10;6.43;;;;;;;25.11;50.24;99587.25;6121529;23;20446;-87
2023/07/19 09:23:36;;;;;;;11.02;5.45;;;;;;;25.11;50.42;99579.09;6098043;23;20105;-88
2023/07/19 09:26:06;;;;;;;12.27;6.07;;;;;;;25.16;50.74;99578.38;6096432;23;20028;-88
2023/07/19 09:28:34;;;;;;;12.32;5.10;;;;;;;25.19;50.04;99576.06;6073499;23;20017;-88
2023/07/19 09:31:05;;;;;;;10.05;5.75;;;;;;;25.19;48.48;99573.34;6073746;23;20026;-88
2023/07/19 09:33:35;;;;;;;10.85;5.60;;;;;;;25.30;47.50;99566.25;6074502;23;20123;-90
2023/07/19 09:36:02;;;;;;;8.85;4.93;;;;;;;25.25;48.10;99569.66;6097712;23;20025;-88
2023/07/19 09:38:29;;;;;;;10.65;4.75;;;;;;;25.24;48.62;99567.19;6049444;23;20025;-88
2023/07/19 09:40:56;;;;;;;11.07;5.43;;;;;;;25.31;47.93;99565.97;6096986;23;20088;-88
2023/07/19 09:43:23;;;;;;;17.55;5.50;;;;;;;25.32;47.96;99561.41;6121111;23;20106;-88
2023/07/19 09:45:51;;;;;;;11.65;5.18;;;;;;;25.36;48.97;99567.16;6096971;23;20084;-88
2023/07/19 09:48:20;;;;;;;11.90;5.28;;;;;;;25.40;47.14;99566.47;6072538;23;20480;-87
2023/07/19 09:50:51;;;;;;;11.05;4.90;;;;;;;25.44;47.27;99572.22;6073638;23;20048;-88
2023/07/19 09:53:22;;;;;;;11.07;4.50;;;;;;;25.47;46.97;99560.91;6073540;23;20021;-88
2023/07/19 09:55:52;;;;;;;9.63;4.40;;;;;;;25.54;45.84;99550.69;6121006;23;20393;-88
2023/07/19 09:58:20;;;;;;;11.60;4.32;;;;;;;25.51;45.55;99556.63;6073263;23;20022;-89
2023/07/19 10:00:48;;;;;;;12.88;4.75;;;;;;;25.48;45.05;99571.53;6121849;23;20044;-88
2023/07/19 10:03:19;;;;;;;9.65;4.47;;;;;;;25.52;43.78;99552.84;6073099;23;20026;-88
2023/07/19 10:05:58;;;;;;;8.60;4.28;;;;;;;25.50;44.68;99554.97;6097521;23;20049;-88
2023/07/19 10:08:25;;;;;;;8.70;3.70;;;;;;;25.54;45.05;99550.69;6073455;23;20068;-89
2023/07/19 10:11:00;;;;;;;10.20;3.90;;;;;;;25.59;44.56;99556.25;6096626;23;20030;-88
2023/07/19 10:13:31;;;;;;;10.20;4.38;;;;;;;25.64;42.68;99563.69;6096499;23;20374;-88
2023/07/19 10:15:57;;;;;;;12.55;3.67;;;;;;;25.64;42.61;99563.69;6072936;23;20092;-89
2023/07/19 10:18:24;;;;;;;7.22;4.35;;;;;;;25.66;42.29;99556.09;6097001;23;20123;-88
2023/07/19 10:21:02;;;;;;;7.93;3.42;;;;;;;25.63;41.33;99556.59;6121844;23;20385;-88
2023/07/19 10:23:30;;;;;;;10.07;3.60;;;;;;;25.67;41.79;99553.16;6095889;23;20022;-88
2023/07/19 10:26:05;;;;;;;6.70;3.42;;;;;;;25.67;41.92;99555.88;6049461;23;20025;-88
2023/07/19 10:28:31;;;;;;;12.63;4.22;;;;;;;25.73;41.82;99549.47;6121034;23;20468;-87
2023/07/19 10:30:59;;;;;;;7.35;3.65;;;;;;;25.75;42.23;99547.34;6048156;23;20025;-87
2023/07/19 10:33:46;;;;;;;8.00;3.70;;;;;;;25.82;42.01;99549.06;6099940;23;20088;-88
2023/07/19 10:36:14;;;;;;;6.45;3.25;;;;;;;25.84;40.62;99547.75;6096980;23;20022;-87
2023/07/19 10:38:41;;;;;;;7.32;3.65;;;;;;;25.88;40.72;99548.16;6097228;23;20026;-89
2023/07/19 10:41:09;;;;;;;10.10;3.58;;;;;;;25.86;41.72;99550.28;6096516;23;20056;-90
2023/07/19 10:43:37;;;;;;;7.90;3.58;;;;;;;25.90;41.44;99552.28;6100818;23;20017;-88
2023/07/19 10:46:07;;;;;;;7.30;3.25;;;;;;;25.86;41.73;99545.66;6124234;23;20036;-88
2023/07/19 10:48:36;;;;;;;5.43;3.47;;;;;;;25.94;41.40;99547.16;6075820;23;20096;-88
2023/07/19 10:51:10;;;;;;;9.40;4.03;;;;;;;25.95;41.67;99551.53;6098924;23;20418;-89
2023/07/19 10:53:41;;;;;;;10.57;3.67;;;;;;;25.95;41.81;99548.81;6075558;23;20021;-89
2023/07/19 10:56:08;;;;;;;7.70;3.15;;;;;;;25.96;42.04;99547.75;6100675;23;20461;-88
2023/07/19 10:58:35;;;;;;;10.50;3.50;;;;;;;25.96;41.40;99539.59;6122830;23;20047;-88
2023/07/19 11:01:02;;;;;;;9.30;3.10;;;;;;;25.99;40.69;99537.19;6123204;23;20088;-87
2023/07/19 11:03:29;;;;;;;9.50;3.20;;;;;;;25.99;41.09;99539.91;6099655;23;20017;-88
2023/07/19 11:05:58;;;;;;;8.57;3.65;;;;;;;26.03;41.17;99543.00;6098707;23;20072;-88
2023/07/19 11:08:26;;;;;;;7.07;3.53;;;;;;;26.04;41.18;99536.47;6098439;23;20045;-88
2023/07/19 11:10:54;;;;;;;8.30;3.40;;;;;;;26.10;41.61;99540.09;6099110;23;20028;-89
2023/07/19 11:13:23;;;;;;;6.20;3.17;;;;;;;26.16;41.08;99533.69;6051909;23;20104;-89
2023/07/19 11:15:57;;;;;;;10.10;3.90;;;;;;;26.15;40.86;99521.97;6099493;23;20033;-88
2023/07/19 11:18:24;;;;;;;7.72;3.60;;;;;;;26.20;40.92;99519.34;6122489;23;20029;-87
2023/07/19 11:20:51;;;;;;;5.28;3.20;;;;;;;26.26;40.76;99517.53;6098765;23;20018;-88
2023/07/19 11:23:18;;;;;;;12.05;3.70;;;;;;;26.31;40.91;99520.34;6098847;23;20017;-89
2023/07/19 11:25:46;;;;;;;5.47;3.08;;;;;;;26.34;41.03;99514.41;6075349;23;20513;-88
2023/07/19 11:28:14;;;;;;;7.07;3.30;;;;;;;26.41;41.22;99504.19;6051986;23;20712;-88
2023/07/19 11:30:41;;;;;;;8.45;3.38;;;;;;;26.47;40.78;99505.06;6051204;23;20052;-87